FDX2447 KIND-KMIA
Flight info
| Callsign | FDX2447 |
|---|---|
| Flight time | N/A |
| Altitude | 39000 |
| Route | DAWNN1 IIU Q79 THRSR HONID FROGZ5 |
| Aircraft | B772/H-SDE2E3FGHIJ5LORVWXY/LB1D1 |
Departure
| Time | 2026-04-30 14:44 |
|---|---|
| Airport | Indianapolis International Airport (KIND) |
Arrival
| Time | N/A |
|---|---|
| Airport | Miami International Airport (KMIA) |
| Time | Latitude | Longitude | Altitude | Speed | Heading |
|---|---|---|---|---|---|
| 2026-04-30 14:34 | 39.71383 | -86.28359 | 796 ft | 0 kts | 315° |
| 2026-04-30 14:34 | 39.71383 | -86.28358 | 796 ft | 0 kts | 315° |
| 2026-04-30 14:36 | 39.71414 | -86.28387 | 796 ft | 10 kts | 345° |
| 2026-04-30 14:36 | 39.71513 | -86.28341 | 796 ft | 24 kts | 34° |
| 2026-04-30 14:37 | 39.71644 | -86.28313 | 796 ft | 27 kts | 312° |
| 2026-04-30 14:37 | 39.71756 | -86.28497 | 796 ft | 19 kts | 274° |
| 2026-04-30 14:37 | 39.71692 | -86.28605 | 794 ft | 17 kts | 226° |
| 2026-04-30 14:37 | 39.71590 | -86.28758 | 794 ft | 25 kts | 253° |
| 2026-04-30 14:38 | 39.71682 | -86.28948 | 791 ft | 30 kts | 315° |
| 2026-04-30 14:38 | 39.71849 | -86.29160 | 790 ft | 36 kts | 315° |
| 2026-04-30 14:38 | 39.72008 | -86.29378 | 786 ft | 14 kts | 314° |
| 2026-04-30 14:38 | 39.72085 | -86.29481 | 786 ft | 15 kts | 315° |
| 2026-04-30 14:39 | 39.72181 | -86.29604 | 784 ft | 23 kts | 315° |
| 2026-04-30 14:39 | 39.72229 | -86.29742 | 782 ft | 16 kts | 241° |
| 2026-04-30 14:39 | 39.72159 | -86.29845 | 779 ft | 6 kts | 223° |
| 2026-04-30 14:40 | 39.72010 | -86.30036 | 776 ft | 23 kts | 225° |
| 2026-04-30 14:40 | 39.71876 | -86.30207 | 773 ft | 30 kts | 225° |
| 2026-04-30 14:40 | 39.71719 | -86.30405 | 768 ft | 22 kts | 224° |
| 2026-04-30 14:40 | 39.71589 | -86.30574 | 765 ft | 29 kts | 225° |
| 2026-04-30 14:41 | 39.71436 | -86.30763 | 762 ft | 29 kts | 225° |
| 2026-04-30 14:41 | 39.71320 | -86.30919 | 760 ft | 23 kts | 224° |
| 2026-04-30 14:41 | 39.71186 | -86.31092 | 757 ft | 30 kts | 226° |
| 2026-04-30 14:41 | 39.71020 | -86.31306 | 754 ft | 36 kts | 225° |
| 2026-04-30 14:42 | 39.70832 | -86.31538 | 752 ft | 27 kts | 225° |
| 2026-04-30 14:42 | 39.70687 | -86.31728 | 750 ft | 27 kts | 223° |
| 2026-04-30 14:42 | 39.70562 | -86.31888 | 749 ft | 12 kts | 241° |
| 2026-04-30 14:42 | 39.70601 | -86.32014 | 747 ft | 19 kts | 315° |
| 2026-04-30 14:43 | 39.70726 | -86.31974 | 748 ft | 17 kts | 46° |
| 2026-04-30 14:43 | 39.70922 | -86.31724 | 750 ft | 82 kts | 44° |
| 2026-04-30 14:43 | 39.71576 | -86.30903 | 765 ft | 176 kts | 42° |
| 2026-04-30 14:43 | 39.72589 | -86.29602 | 1058 ft | 229 kts | 44° |
| 2026-04-30 14:44 | 39.73766 | -86.28030 | 2132 ft | 259 kts | 44° |
| 2026-04-30 14:44 | 39.74890 | -86.26526 | 4074 ft | 227 kts | 41° |
| 2026-04-30 14:44 | 39.75972 | -86.24999 | 4839 ft | 243 kts | 51° |
| 2026-04-30 14:44 | 39.76576 | -86.22845 | 5448 ft | 272 kts | 81° |
| 2026-04-30 14:45 | 39.76174 | -86.20420 | 6259 ft | 293 kts | 114° |
| 2026-04-30 14:45 | 39.74763 | -86.18481 | 7116 ft | 306 kts | 148° |
| 2026-04-30 14:45 | 39.72730 | -86.17704 | 7996 ft | 307 kts | 182° |
| 2026-04-30 14:45 | 39.70655 | -86.18162 | 8932 ft | 302 kts | 200° |
| 2026-04-30 14:46 | 39.68662 | -86.18909 | 9917 ft | 302 kts | 202° |
| 2026-04-30 14:46 | 39.66650 | -86.19688 | 10716 ft | 308 kts | 202° |
| 2026-04-30 14:46 | 39.64548 | -86.20507 | 11231 ft | 325 kts | 202° |
| 2026-04-30 14:46 | 39.63064 | -86.21085 | 11588 ft | 335 kts | 202° |
| 2026-04-30 14:47 | 39.59991 | -86.22279 | 12290 ft | 356 kts | 202° |
| 2026-04-30 14:47 | 39.57597 | -86.23207 | 12822 ft | 369 kts | 202° |
| 2026-04-30 14:47 | 39.55081 | -86.24180 | 13347 ft | 383 kts | 202° |
| 2026-04-30 14:47 | 39.52484 | -86.25182 | 13959 ft | 393 kts | 202° |
| 2026-04-30 14:48 | 39.49842 | -86.26196 | 14819 ft | 395 kts | 202° |
| 2026-04-30 14:48 | 39.47230 | -86.27196 | 15678 ft | 397 kts | 203° |
| 2026-04-30 14:48 | 39.44554 | -86.28223 | 16445 ft | 401 kts | 203° |
| 2026-04-30 14:48 | 39.41870 | -86.29251 | 17143 ft | 407 kts | 203° |
| 2026-04-30 14:49 | 39.39154 | -86.30289 | 17924 ft | 409 kts | 204° |
| 2026-04-30 14:49 | 39.36382 | -86.31125 | 18680 ft | 419 kts | 195° |
| 2026-04-30 14:49 | 39.33411 | -86.31345 | 19346 ft | 434 kts | 185° |
| 2026-04-30 14:49 | 39.30389 | -86.31069 | 19955 ft | 443 kts | 182° |
| 2026-04-30 14:50 | 39.24231 | -86.30353 | 21448 ft | 447 kts | 182° |
| 2026-04-30 14:50 | 39.21097 | -86.29993 | 22098 ft | 452 kts | 182° |
| 2026-04-30 14:51 | 39.14798 | -86.29280 | 23379 ft | 459 kts | 183° |
| 2026-04-30 14:51 | 39.11603 | -86.28921 | 24040 ft | 462 kts | 183° |
| 2026-04-30 14:51 | 39.05153 | -86.28202 | 25234 ft | 470 kts | 183° |
| 2026-04-30 14:52 | 39.01881 | -86.27839 | 25791 ft | 475 kts | 183° |
| 2026-04-30 14:52 | 38.95252 | -86.27103 | 27039 ft | 481 kts | 183° |
| 2026-04-30 14:52 | 38.91931 | -86.26735 | 27610 ft | 484 kts | 183° |
| 2026-04-30 14:53 | 38.85187 | -86.25989 | 28521 ft | 482 kts | 184° |
| 2026-04-30 14:53 | 38.81818 | -86.25619 | 28611 ft | 494 kts | 184° |
| 2026-04-30 14:54 | 38.74888 | -86.24857 | 29692 ft | 500 kts | 184° |
| 2026-04-30 14:54 | 38.67977 | -86.24094 | 30834 ft | 501 kts | 184° |
| 2026-04-30 14:55 | 38.60989 | -86.22677 | 31653 ft | 523 kts | 172° |
| 2026-04-30 14:55 | 38.57541 | -86.21008 | 32145 ft | 534 kts | 163° |
| 2026-04-30 14:55 | 38.51176 | -86.15717 | 33020 ft | 557 kts | 144° |
| 2026-04-30 14:56 | 38.45876 | -86.08360 | 33836 ft | 570 kts | 136° |
| 2026-04-30 14:56 | 38.40686 | -86.00655 | 34805 ft | 568 kts | 136° |
| 2026-04-30 14:57 | 38.38113 | -85.96909 | 35230 ft | 568 kts | 136° |
| 2026-04-30 14:57 | 38.32834 | -85.89328 | 36067 ft | 569 kts | 136° |
| 2026-04-30 14:58 | 38.27604 | -85.81908 | 37150 ft | 565 kts | 137° |
| 2026-04-30 14:58 | 38.24968 | -85.78193 | 37439 ft | 567 kts | 137° |
| 2026-04-30 14:58 | 38.19657 | -85.70745 | 38093 ft | 568 kts | 137° |
| 2026-04-30 14:59 | 38.14160 | -85.63521 | 38691 ft | 562 kts | 146° |
| 2026-04-30 15:00 | 38.04244 | -85.56517 | 39120 ft | 533 kts | 172° |
| 2026-04-30 15:01 | 37.90046 | -85.52341 | 39137 ft | 522 kts | 178° |
| 2026-04-30 15:01 | 37.79374 | -85.49425 | 39120 ft | 523 kts | 178° |
| 2026-04-30 15:02 | 37.72260 | -85.47503 | 39126 ft | 522 kts | 178° |
| 2026-04-30 15:03 | 37.54469 | -85.42734 | 39126 ft | 522 kts | 178° |
| 2026-04-30 15:04 | 37.36704 | -85.38008 | 39123 ft | 525 kts | 179° |
| 2026-04-30 15:06 | 37.18876 | -85.33288 | 39101 ft | 524 kts | 179° |
| 2026-04-30 15:07 | 37.04599 | -85.29525 | 39068 ft | 526 kts | 179° |
| 2026-04-30 15:08 | 36.90290 | -85.25768 | 39062 ft | 525 kts | 180° |
| 2026-04-30 15:09 | 36.72434 | -85.21102 | 39072 ft | 528 kts | 180° |
| 2026-04-30 15:10 | 36.58039 | -85.17355 | 39077 ft | 529 kts | 180° |
| 2026-04-30 15:11 | 36.36519 | -85.11781 | 39043 ft | 528 kts | 180° |
| 2026-04-30 15:13 | 36.18531 | -85.07148 | 39054 ft | 528 kts | 181° |
| 2026-04-30 15:14 | 35.93266 | -85.00673 | 39056 ft | 527 kts | 181° |
| 2026-04-30 15:17 | 35.60836 | -84.92429 | 39030 ft | 529 kts | 181° |
| 2026-04-30 15:19 | 35.31838 | -84.85098 | 39031 ft | 534 kts | 181° |